sensor_id;sensor_type;location;lat;lon;timestamp;P1;durP1;ratioP1;P2;durP2;ratioP2
5217;SDS011;26539;51.064;6.346;2023-02-02T00:01:55;15.93;;;6.07;;
5217;SDS011;26539;51.064;6.346;2023-02-02T00:06:49;13.70;;;6.00;;
5217;SDS011;26539;51.064;6.346;2023-02-02T00:09:16;11.03;;;4.60;;
5217;SDS011;26539;51.064;6.346;2023-02-02T00:11:43;25.90;;;5.47;;
5217;SDS011;26539;51.064;6.346;2023-02-02T00:14:09;14.73;;;5.40;;
5217;SDS011;26539;51.064;6.346;2023-02-02T00:16:36;15.37;;;5.00;;
5217;SDS011;26539;51.064;6.346;2023-02-02T00:19:05;16.87;;;5.07;;
5217;SDS011;26539;51.064;6.346;2023-02-02T00:21:40;15.90;;;4.70;;
5217;SDS011;26539;51.064;6.346;2023-02-02T00:24:06;16.50;;;5.70;;
5217;SDS011;26539;51.064;6.346;2023-02-02T00:26:33;21.07;;;5.17;;
5217;SDS011;26539;51.064;6.346;2023-02-02T00:29:02;18.23;;;6.13;;
5217;SDS011;26539;51.064;6.346;2023-02-02T00:31:29;19.30;;;5.10;;
5217;SDS011;26539;51.064;6.346;2023-02-02T00:33:57;22.93;;;5.13;;
5217;SDS011;26539;51.064;6.346;2023-02-02T00:36:23;16.17;;;5.00;;
5217;SDS011;26539;51.064;6.346;2023-02-02T00:38:50;13.33;;;5.37;;
5217;SDS011;26539;51.064;6.346;2023-02-02T00:41:16;26.90;;;6.70;;
5217;SDS011;26539;51.064;6.346;2023-02-02T00:43:48;12.30;;;4.80;;
5217;SDS011;26539;51.064;6.346;2023-02-02T00:46:33;14.30;;;4.27;;
5217;SDS011;26539;51.064;6.346;2023-02-02T00:49:02;18.57;;;4.90;;
5217;SDS011;26539;51.064;6.346;2023-02-02T00:51:30;19.60;;;6.03;;
5217;SDS011;26539;51.064;6.346;2023-02-02T00:53:56;27.43;;;5.57;;
5217;SDS011;26539;51.064;6.346;2023-02-02T00:56:22;19.77;;;5.63;;
5217;SDS011;26539;51.064;6.346;2023-02-02T00:58:49;21.73;;;5.60;;
5217;SDS011;26539;51.064;6.346;2023-02-02T01:01:16;25.30;;;5.17;;
5217;SDS011;26539;51.064;6.346;2023-02-02T01:03:43;17.07;;;5.13;;
5217;SDS011;26539;51.064;6.346;2023-02-02T01:06:09;16.73;;;5.60;;
5217;SDS011;26539;51.064;6.346;2023-02-02T01:08:34;20.60;;;6.00;;
5217;SDS011;26539;51.064;6.346;2023-02-02T01:11:00;18.83;;;4.70;;
5217;SDS011;26539;51.064;6.346;2023-02-02T01:13:25;15.07;;;5.03;;
5217;SDS011;26539;51.064;6.346;2023-02-02T01:15:58;18.20;;;4.73;;
5217;SDS011;26539;51.064;6.346;2023-02-02T01:18:25;16.57;;;4.80;;
5217;SDS011;26539;51.064;6.346;2023-02-02T01:20:55;17.50;;;4.93;;
5217;SDS011;26539;51.064;6.346;2023-02-02T01:23:24;16.00;;;6.40;;
5217;SDS011;26539;51.064;6.346;2023-02-02T01:25:53;10.23;;;4.83;;
5217;SDS011;26539;51.064;6.346;2023-02-02T01:28:19;14.43;;;4.53;;
5217;SDS011;26539;51.064;6.346;2023-02-02T01:30:45;17.73;;;4.90;;
5217;SDS011;26539;51.064;6.346;2023-02-02T01:33:11;10.53;;;4.13;;
5217;SDS011;26539;51.064;6.346;2023-02-02T01:35:43;11.30;;;5.07;;
5217;SDS011;26539;51.064;6.346;2023-02-02T01:38:10;26.10;;;6.17;;
5217;SDS011;26539;51.064;6.346;2023-02-02T01:40:36;18.23;;;5.73;;
5217;SDS011;26539;51.064;6.346;2023-02-02T01:43:12;21.20;;;4.60;;
5217;SDS011;26539;51.064;6.346;2023-02-02T01:45:46;28.00;;;5.83;;
5217;SDS011;26539;51.064;6.346;2023-02-02T01:48:14;19.23;;;5.00;;
5217;SDS011;26539;51.064;6.346;2023-02-02T01:50:40;24.33;;;5.60;;
5217;SDS011;26539;51.064;6.346;2023-02-02T01:53:07;16.20;;;5.07;;
5217;SDS011;26539;51.064;6.346;2023-02-02T01:55:34;16.53;;;5.27;;
5217;SDS011;26539;51.064;6.346;2023-02-02T01:58:07;14.40;;;4.97;;
5217;SDS011;26539;51.064;6.346;2023-02-02T02:00:36;15.30;;;4.50;;
5217;SDS011;26539;51.064;6.346;2023-02-02T02:03:06;19.40;;;5.27;;
5217;SDS011;26539;51.064;6.346;2023-02-02T02:05:49;12.07;;;3.83;;
5217;SDS011;26539;51.064;6.346;2023-02-02T02:08:26;19.43;;;5.00;;
5217;SDS011;26539;51.064;6.346;2023-02-02T02:10:55;16.90;;;5.25;;
5217;SDS011;26539;51.064;6.346;2023-02-02T02:13:22;14.67;;;5.00;;
5217;SDS011;26539;51.064;6.346;2023-02-02T02:16:15;13.57;;;4.30;;
5217;SDS011;26539;51.064;6.346;2023-02-02T02:21:30;27.87;;;6.90;;
5217;SDS011;26539;51.064;6.346;2023-02-02T02:27:59;13.77;;;4.90;;
5217;SDS011;26539;51.064;6.346;2023-02-02T02:30:37;18.07;;;5.37;;
5217;SDS011;26539;51.064;6.346;2023-02-02T02:33:15;13.80;;;5.10;;
5217;SDS011;26539;51.064;6.346;2023-02-02T02:41:09;24.17;;;5.30;;
5217;SDS011;26539;51.064;6.346;2023-02-02T02:43:50;15.00;;;6.03;;
5217;SDS011;26539;51.064;6.346;2023-02-02T02:46:22;14.27;;;5.47;;
5217;SDS011;26539;51.064;6.346;2023-02-02T02:48:49;10.50;;;4.87;;
5217;SDS011;26539;51.064;6.346;2023-02-02T02:54:05;11.95;;;4.93;;
5217;SDS011;26539;51.064;6.346;2023-02-02T02:56:33;19.93;;;6.20;;
5217;SDS011;26539;51.064;6.346;2023-02-02T02:59:29;30.67;;;4.80;;
5217;SDS011;26539;51.064;6.346;2023-02-02T03:04:49;13.03;;;4.43;;
5217;SDS011;26539;51.064;6.346;2023-02-02T03:07:43;21.57;;;5.73;;
5217;SDS011;26539;51.064;6.346;2023-02-02T03:10:15;15.03;;;4.97;;
5217;SDS011;26539;51.064;6.346;2023-02-02T03:12:48;22.40;;;6.57;;
5217;SDS011;26539;51.064;6.346;2023-02-02T03:15:15;16.37;;;4.97;;
5217;SDS011;26539;51.064;6.346;2023-02-02T03:17:42;14.13;;;5.40;;
5217;SDS011;26539;51.064;6.346;2023-02-02T03:20:09;22.87;;;5.20;;
5217;SDS011;26539;51.064;6.346;2023-02-02T03:22:35;18.30;;;5.23;;
5217;SDS011;26539;51.064;6.346;2023-02-02T03:25:00;15.40;;;4.40;;
5217;SDS011;26539;51.064;6.346;2023-02-02T03:27:26;23.40;;;4.70;;
5217;SDS011;26539;51.064;6.346;2023-02-02T03:29:52;22.53;;;5.13;;
5217;SDS011;26539;51.064;6.346;2023-02-02T03:32:18;21.20;;;4.53;;
5217;SDS011;26539;51.064;6.346;2023-02-02T03:34:43;17.07;;;4.80;;
5217;SDS011;26539;51.064;6.346;2023-02-02T03:37:09;14.63;;;4.80;;
5217;SDS011;26539;51.064;6.346;2023-02-02T03:39:34;14.53;;;4.60;;
5217;SDS011;26539;51.064;6.346;2023-02-02T03:42:00;10.87;;;5.60;;
5217;SDS011;26539;51.064;6.346;2023-02-02T03:44:25;17.43;;;4.17;;
5217;SDS011;26539;51.064;6.346;2023-02-02T03:46:54;20.77;;;4.07;;
5217;SDS011;26539;51.064;6.346;2023-02-02T03:49:20;23.27;;;3.70;;
5217;SDS011;26539;51.064;6.346;2023-02-02T03:51:46;12.47;;;4.60;;
5217;SDS011;26539;51.064;6.346;2023-02-02T03:54:12;16.13;;;3.93;;
5217;SDS011;26539;51.064;6.346;2023-02-02T03:56:39;15.17;;;4.50;;
5217;SDS011;26539;51.064;6.346;2023-02-02T03:59:05;17.40;;;4.67;;
5217;SDS011;26539;51.064;6.346;2023-02-02T04:01:30;16.17;;;4.20;;
5217;SDS011;26539;51.064;6.346;2023-02-02T04:03:56;12.53;;;4.23;;
5217;SDS011;26539;51.064;6.346;2023-02-02T04:06:23;17.30;;;5.40;;
5217;SDS011;26539;51.064;6.346;2023-02-02T04:08:49;15.27;;;4.73;;
5217;SDS011;26539;51.064;6.346;2023-02-02T04:11:15;17.30;;;5.53;;
5217;SDS011;26539;51.064;6.346;2023-02-02T04:13:41;21.03;;;4.93;;
5217;SDS011;26539;51.064;6.346;2023-02-02T04:16:07;18.90;;;5.27;;
5217;SDS011;26539;51.064;6.346;2023-02-02T04:18:34;15.57;;;5.30;;
5217;SDS011;26539;51.064;6.346;2023-02-02T04:21:03;16.83;;;5.13;;
5217;SDS011;26539;51.064;6.346;2023-02-02T04:23:30;17.20;;;5.73;;
5217;SDS011;26539;51.064;6.346;2023-02-02T04:25:56;14.10;;;4.53;;
5217;SDS011;26539;51.064;6.346;2023-02-02T04:28:22;15.30;;;4.40;;
5217;SDS011;26539;51.064;6.346;2023-02-02T04:30:51;18.20;;;4.73;;
5217;SDS011;26539;51.064;6.346;2023-02-02T04:33:18;14.70;;;4.70;;
5217;SDS011;26539;51.064;6.346;2023-02-02T04:35:44;26.05;;;5.78;;
5217;SDS011;26539;51.064;6.346;2023-02-02T04:38:10;14.37;;;4.73;;
5217;SDS011;26539;51.064;6.346;2023-02-02T04:40:37;17.10;;;4.40;;
5217;SDS011;26539;51.064;6.346;2023-02-02T04:43:03;8.93;;;4.57;;
5217;SDS011;26539;51.064;6.346;2023-02-02T04:45:29;19.43;;;5.57;;
5217;SDS011;26539;51.064;6.346;2023-02-02T04:47:55;28.93;;;4.70;;
5217;SDS011;26539;51.064;6.346;2023-02-02T04:50:20;19.77;;;5.10;;
5217;SDS011;26539;51.064;6.346;2023-02-02T04:52:46;24.63;;;5.87;;
5217;SDS011;26539;51.064;6.346;2023-02-02T04:55:14;23.23;;;6.00;;
5217;SDS011;26539;51.064;6.346;2023-02-02T04:57:40;18.00;;;5.20;;
5217;SDS011;26539;51.064;6.346;2023-02-02T05:00:09;19.17;;;5.07;;
5217;SDS011;26539;51.064;6.346;2023-02-02T05:02:36;21.30;;;5.80;;
5217;SDS011;26539;51.064;6.346;2023-02-02T05:05:04;20.03;;;4.80;;
5217;SDS011;26539;51.064;6.346;2023-02-02T05:07:30;18.73;;;5.53;;
5217;SDS011;26539;51.064;6.346;2023-02-02T05:09:59;19.00;;;5.80;;
5217;SDS011;26539;51.064;6.346;2023-02-02T05:12:27;18.10;;;5.15;;
5217;SDS011;26539;51.064;6.346;2023-02-02T05:14:53;15.00;;;5.00;;
5217;SDS011;26539;51.064;6.346;2023-02-02T05:17:20;11.67;;;5.63;;
5217;SDS011;26539;51.064;6.346;2023-02-02T05:19:46;22.57;;;5.70;;
5217;SDS011;26539;51.064;6.346;2023-02-02T05:22:12;22.10;;;5.40;;
5217;SDS011;26539;51.064;6.346;2023-02-02T05:24:40;18.42;;;5.50;;
5217;SDS011;26539;51.064;6.346;2023-02-02T05:27:06;30.43;;;7.47;;
5217;SDS011;26539;51.064;6.346;2023-02-02T05:29:31;20.00;;;5.57;;
5217;SDS011;26539;51.064;6.346;2023-02-02T05:32:00;20.67;;;6.67;;
5217;SDS011;26539;51.064;6.346;2023-02-02T05:34:25;19.05;;;6.78;;
5217;SDS011;26539;51.064;6.346;2023-02-02T05:36:51;26.17;;;5.20;;
5217;SDS011;26539;51.064;6.346;2023-02-02T05:39:17;26.53;;;6.60;;
5217;SDS011;26539;51.064;6.346;2023-02-02T05:41:44;23.73;;;6.78;;
5217;SDS011;26539;51.064;6.346;2023-02-02T05:44:11;17.97;;;6.30;;
5217;SDS011;26539;51.064;6.346;2023-02-02T05:46:37;26.40;;;6.40;;
5217;SDS011;26539;51.064;6.346;2023-02-02T05:49:05;15.10;;;5.43;;
5217;SDS011;26539;51.064;6.346;2023-02-02T05:51:32;17.03;;;6.13;;
5217;SDS011;26539;51.064;6.346;2023-02-02T05:54:03;20.67;;;5.63;;
5217;SDS011;26539;51.064;6.346;2023-02-02T05:56:29;29.97;;;6.23;;
5217;SDS011;26539;51.064;6.346;2023-02-02T05:58:55;26.00;;;7.93;;
5217;SDS011;26539;51.064;6.346;2023-02-02T06:01:21;17.17;;;6.23;;
5217;SDS011;26539;51.064;6.346;2023-02-02T06:03:46;16.67;;;6.10;;
5217;SDS011;26539;51.064;6.346;2023-02-02T06:06:14;20.58;;;5.40;;
5217;SDS011;26539;51.064;6.346;2023-02-02T06:08:40;30.40;;;7.63;;
5217;SDS011;26539;51.064;6.346;2023-02-02T06:13:36;23.67;;;6.05;;
5217;SDS011;26539;51.064;6.346;2023-02-02T06:16:02;22.13;;;6.80;;
5217;SDS011;26539;51.064;6.346;2023-02-02T06:18:28;16.80;;;5.65;;
5217;SDS011;26539;51.064;6.346;2023-02-02T06:20:57;16.25;;;6.75;;
5217;SDS011;26539;51.064;6.346;2023-02-02T06:23:24;17.02;;;5.68;;
5217;SDS011;26539;51.064;6.346;2023-02-02T06:25:50;18.00;;;6.03;;
5217;SDS011;26539;51.064;6.346;2023-02-02T06:28:16;25.37;;;7.33;;
5217;SDS011;26539;51.064;6.346;2023-02-02T06:30:41;18.40;;;6.10;;
5217;SDS011;26539;51.064;6.346;2023-02-02T06:33:07;19.27;;;5.67;;
5217;SDS011;26539;51.064;6.346;2023-02-02T06:35:36;19.20;;;5.97;;
5217;SDS011;26539;51.064;6.346;2023-02-02T06:38:04;23.67;;;6.97;;
5217;SDS011;26539;51.064;6.346;2023-02-02T06:40:32;12.48;;;5.35;;
5217;SDS011;26539;51.064;6.346;2023-02-02T06:43:05;19.88;;;5.63;;
5217;SDS011;26539;51.064;6.346;2023-02-02T06:45:32;22.92;;;6.38;;
5217;SDS011;26539;51.064;6.346;2023-02-02T06:48:04;21.08;;;5.40;;
5217;SDS011;26539;51.064;6.346;2023-02-02T06:50:34;19.20;;;6.13;;
5217;SDS011;26539;51.064;6.346;2023-02-02T06:53:01;20.38;;;5.78;;
5217;SDS011;26539;51.064;6.346;2023-02-02T06:55:26;14.93;;;4.80;;
5217;SDS011;26539;51.064;6.346;2023-02-02T06:57:55;17.40;;;5.47;;
5217;SDS011;26539;51.064;6.346;2023-02-02T07:00:22;20.15;;;5.95;;
5217;SDS011;26539;51.064;6.346;2023-02-02T07:02:48;24.27;;;5.43;;
5217;SDS011;26539;51.064;6.346;2023-02-02T07:05:13;26.90;;;6.40;;
5217;SDS011;26539;51.064;6.346;2023-02-02T07:07:39;15.43;;;5.40;;
5217;SDS011;26539;51.064;6.346;2023-02-02T07:10:04;14.10;;;5.90;;
5217;SDS011;26539;51.064;6.346;2023-02-02T07:12:30;25.53;;;6.10;;
5217;SDS011;26539;51.064;6.346;2023-02-02T07:14:56;19.33;;;6.07;;
5217;SDS011;26539;51.064;6.346;2023-02-02T07:17:23;30.48;;;6.07;;
5217;SDS011;26539;51.064;6.346;2023-02-02T07:19:49;18.27;;;5.87;;
5217;SDS011;26539;51.064;6.346;2023-02-02T07:22:14;17.93;;;5.37;;
5217;SDS011;26539;51.064;6.346;2023-02-02T07:24:40;25.60;;;6.70;;
5217;SDS011;26539;51.064;6.346;2023-02-02T07:27:06;21.73;;;6.63;;
5217;SDS011;26539;51.064;6.346;2023-02-02T07:29:31;20.30;;;6.97;;
5217;SDS011;26539;51.064;6.346;2023-02-02T07:31:57;20.70;;;6.23;;
5217;SDS011;26539;51.064;6.346;2023-02-02T07:34:23;16.60;;;5.57;;
5217;SDS011;26539;51.064;6.346;2023-02-02T07:36:48;28.33;;;7.75;;
5217;SDS011;26539;51.064;6.346;2023-02-02T07:39:14;15.07;;;6.53;;
5217;SDS011;26539;51.064;6.346;2023-02-02T07:41:40;23.07;;;7.57;;
5217;SDS011;26539;51.064;6.346;2023-02-02T07:44:09;20.50;;;8.00;;
5217;SDS011;26539;51.064;6.346;2023-02-02T07:46:39;26.13;;;8.25;;
5217;SDS011;26539;51.064;6.346;2023-02-02T07:49:06;19.42;;;6.75;;
5217;SDS011;26539;51.064;6.346;2023-02-02T07:51:31;19.47;;;7.90;;
5217;SDS011;26539;51.064;6.346;2023-02-02T07:54:00;16.70;;;6.50;;
5217;SDS011;26539;51.064;6.346;2023-02-02T07:56:25;17.77;;;6.20;;
5217;SDS011;26539;51.064;6.346;2023-02-02T07:58:53;29.30;;;8.48;;
5217;SDS011;26539;51.064;6.346;2023-02-02T08:01:20;21.47;;;6.40;;
5217;SDS011;26539;51.064;6.346;2023-02-02T08:03:47;23.37;;;6.43;;
5217;SDS011;26539;51.064;6.346;2023-02-02T08:06:21;19.33;;;5.80;;
5217;SDS011;26539;51.064;6.346;2023-02-02T08:08:49;18.70;;;6.23;;
5217;SDS011;26539;51.064;6.346;2023-02-02T08:11:16;13.15;;;6.65;;
5217;SDS011;26539;51.064;6.346;2023-02-02T08:13:44;18.63;;;4.93;;
5217;SDS011;26539;51.064;6.346;2023-02-02T08:16:16;19.88;;;5.95;;
5217;SDS011;26539;51.064;6.346;2023-02-02T08:18:52;18.83;;;5.67;;
5217;SDS011;26539;51.064;6.346;2023-02-02T08:21:31;23.70;;;5.68;;
5217;SDS011;26539;51.064;6.346;2023-02-02T08:24:00;12.80;;;5.20;;
5217;SDS011;26539;51.064;6.346;2023-02-02T08:26:30;12.40;;;5.23;;
5217;SDS011;26539;51.064;6.346;2023-02-02T08:28:57;17.40;;;5.87;;
5217;SDS011;26539;51.064;6.346;2023-02-02T08:31:36;19.50;;;6.00;;
5217;SDS011;26539;51.064;6.346;2023-02-02T08:34:12;21.57;;;5.20;;
5217;SDS011;26539;51.064;6.346;2023-02-02T08:36:38;18.87;;;5.47;;
5217;SDS011;26539;51.064;6.346;2023-02-02T08:39:05;20.65;;;5.78;;
5217;SDS011;26539;51.064;6.346;2023-02-02T08:41:43;16.90;;;5.93;;
5217;SDS011;26539;51.064;6.346;2023-02-02T08:44:14;16.33;;;5.72;;
5217;SDS011;26539;51.064;6.346;2023-02-02T08:46:40;18.08;;;5.65;;
5217;SDS011;26539;51.064;6.346;2023-02-02T08:49:07;15.03;;;6.03;;
5217;SDS011;26539;51.064;6.346;2023-02-02T08:51:37;18.80;;;6.90;;
5217;SDS011;26539;51.064;6.346;2023-02-02T08:54:03;28.13;;;6.03;;
5217;SDS011;26539;51.064;6.346;2023-02-02T08:56:33;15.03;;;7.60;;
5217;SDS011;26539;51.064;6.346;2023-02-02T08:59:04;19.30;;;5.80;;
5217;SDS011;26539;51.064;6.346;2023-02-02T09:01:35;13.03;;;5.93;;
5217;SDS011;26539;51.064;6.346;2023-02-02T09:04:04;25.60;;;7.77;;
5217;SDS011;26539;51.064;6.346;2023-02-02T09:06:38;19.63;;;7.15;;
5217;SDS011;26539;51.064;6.346;2023-02-02T09:09:05;18.73;;;6.97;;
5217;SDS011;26539;51.064;6.346;2023-02-02T09:11:32;15.30;;;6.60;;
5217;SDS011;26539;51.064;6.346;2023-02-02T09:13:59;16.50;;;6.60;;
5217;SDS011;26539;51.064;6.346;2023-02-02T09:16:27;21.23;;;5.70;;
5217;SDS011;26539;51.064;6.346;2023-02-02T09:18:56;22.60;;;7.13;;
5217;SDS011;26539;51.064;6.346;2023-02-02T09:21:21;14.63;;;6.73;;
5217;SDS011;26539;51.064;6.346;2023-02-02T09:23:56;18.23;;;7.70;;
5217;SDS011;26539;51.064;6.346;2023-02-02T09:26:25;11.50;;;6.87;;
5217;SDS011;26539;51.064;6.346;2023-02-02T09:29:01;18.15;;;8.20;;
5217;SDS011;26539;51.064;6.346;2023-02-02T09:31:29;22.13;;;8.50;;
5217;SDS011;26539;51.064;6.346;2023-02-02T09:34:01;22.17;;;8.63;;
5217;SDS011;26539;51.064;6.346;2023-02-02T09:36:38;22.58;;;8.75;;
5217;SDS011;26539;51.064;6.346;2023-02-02T09:39:06;18.73;;;8.70;;
5217;SDS011;26539;51.064;6.346;2023-02-02T09:45:20;26.70;;;10.10;;
5217;SDS011;26539;51.064;6.346;2023-02-02T09:47:53;14.77;;;10.40;;
5217;SDS011;26539;51.064;6.346;2023-02-02T09:53:41;27.23;;;9.80;;
5217;SDS011;26539;51.064;6.346;2023-02-02T09:56:21;22.57;;;9.37;;
5217;SDS011;26539;51.064;6.346;2023-02-02T09:59:11;25.40;;;11.37;;
5217;SDS011;26539;51.064;6.346;2023-02-02T10:01:44;21.83;;;9.93;;
5217;SDS011;26539;51.064;6.346;2023-02-02T10:04:15;17.33;;;9.60;;
5217;SDS011;26539;51.064;6.346;2023-02-02T10:06:53;17.87;;;9.27;;
5217;SDS011;26539;51.064;6.346;2023-02-02T10:09:38;18.47;;;10.70;;
5217;SDS011;26539;51.064;6.346;2023-02-02T10:18:05;20.23;;;9.50;;
5217;SDS011;26539;51.064;6.346;2023-02-02T10:21:00;24.53;;;10.40;;
5217;SDS011;26539;51.064;6.346;2023-02-02T10:30:22;20.07;;;9.37;;
5217;SDS011;26539;51.064;6.346;2023-02-02T10:50:44;14.57;;;7.80;;
5217;SDS011;26539;51.064;6.346;2023-02-02T11:09:56;15.63;;;6.70;;
5217;SDS011;26539;51.064;6.346;2023-02-02T11:19:22;13.03;;;6.50;;
5217;SDS011;26539;51.064;6.346;2023-02-02T11:22:02;12.50;;;6.50;;
5217;SDS011;26539;51.064;6.346;2023-02-02T11:30:34;19.70;;;7.17;;
5217;SDS011;26539;51.064;6.346;2023-02-02T11:33:44;13.30;;;7.17;;
5217;SDS011;26539;51.064;6.346;2023-02-02T11:47:01;13.67;;;6.97;;
5217;SDS011;26539;51.064;6.346;2023-02-02T11:49:51;24.07;;;9.07;;
5217;SDS011;26539;51.064;6.346;2023-02-02T11:52:38;19.83;;;8.00;;
5217;SDS011;26539;51.064;6.346;2023-02-02T12:02:06;20.20;;;7.90;;
5217;SDS011;26539;51.064;6.346;2023-02-02T12:04:39;20.63;;;7.60;;
5217;SDS011;26539;51.064;6.346;2023-02-02T12:14:07;14.83;;;7.80;;
5217;SDS011;26539;51.064;6.346;2023-02-02T12:26:57;13.63;;;6.80;;
5217;SDS011;26539;51.064;6.346;2023-02-02T12:29:32;17.83;;;7.30;;
5217;SDS011;26539;51.064;6.346;2023-02-02T12:32:21;20.23;;;8.33;;
5217;SDS011;26539;51.064;6.346;2023-02-02T12:44:26;10.50;;;6.90;;
5217;SDS011;26539;51.064;6.346;2023-02-02T12:50:21;16.30;;;6.50;;
5217;SDS011;26539;51.064;6.346;2023-02-02T13:09:47;11.83;;;6.10;;
5217;SDS011;26539;51.064;6.346;2023-02-02T13:12:24;8.97;;;5.40;;
5217;SDS011;26539;51.064;6.346;2023-02-02T13:14:57;12.63;;;5.33;;
5217;SDS011;26539;51.064;6.346;2023-02-02T13:22:42;15.63;;;6.50;;
5217;SDS011;26539;51.064;6.346;2023-02-02T13:28:14;13.93;;;5.60;;
5217;SDS011;26539;51.064;6.346;2023-02-02T13:30:52;12.40;;;5.23;;
5217;SDS011;26539;51.064;6.346;2023-02-02T13:33:32;10.03;;;4.47;;
5217;SDS011;26539;51.064;6.346;2023-02-02T13:36:20;8.43;;;4.93;;
5217;SDS011;26539;51.064;6.346;2023-02-02T13:38:53;8.90;;;5.10;;
5217;SDS011;26539;51.064;6.346;2023-02-02T13:44:45;17.20;;;5.13;;
5217;SDS011;26539;51.064;6.346;2023-02-02T13:47:51;11.97;;;4.83;;
5217;SDS011;26539;51.064;6.346;2023-02-02T13:50:44;10.10;;;4.93;;
5217;SDS011;26539;51.064;6.346;2023-02-02T14:06:19;12.90;;;5.53;;
5217;SDS011;26539;51.064;6.346;2023-02-02T14:09:41;7.70;;;4.40;;
5217;SDS011;26539;51.064;6.346;2023-02-02T14:12:00;8.47;;;4.07;;
5217;SDS011;26539;51.064;6.346;2023-02-02T14:14:51;9.03;;;4.93;;
5217;SDS011;26539;51.064;6.346;2023-02-02T14:36:21;11.10;;;4.90;;
5217;SDS011;26539;51.064;6.346;2023-02-02T14:39:16;14.33;;;4.50;;
5217;SDS011;26539;51.064;6.346;2023-02-02T14:46:15;8.73;;;4.30;;
5217;SDS011;26539;51.064;6.346;2023-02-02T14:48:47;16.80;;;5.17;;
5217;SDS011;26539;51.064;6.346;2023-02-02T14:51:51;8.30;;;4.10;;
5217;SDS011;26539;51.064;6.346;2023-02-02T14:54:38;6.80;;;3.90;;
5217;SDS011;26539;51.064;6.346;2023-02-02T15:00:33;6.90;;;3.67;;
5217;SDS011;26539;51.064;6.346;2023-02-02T15:06:31;9.27;;;4.40;;
5217;SDS011;26539;51.064;6.346;2023-02-02T15:21:38;10.43;;;4.13;;
5217;SDS011;26539;51.064;6.346;2023-02-02T15:24:23;13.70;;;4.37;;
5217;SDS011;26539;51.064;6.346;2023-02-02T15:27:30;15.53;;;4.20;;
5217;SDS011;26539;51.064;6.346;2023-02-02T15:30:12;11.73;;;4.40;;
5217;SDS011;26539;51.064;6.346;2023-02-02T15:39:28;9.70;;;4.70;;
5217;SDS011;26539;51.064;6.346;2023-02-02T15:42:22;17.07;;;5.80;;
5217;SDS011;26539;51.064;6.346;2023-02-02T16:06:02;14.50;;;5.60;;
5217;SDS011;26539;51.064;6.346;2023-02-02T16:08:41;9.43;;;4.80;;
5217;SDS011;26539;51.064;6.346;2023-02-02T16:11:40;7.13;;;5.30;;
5217;SDS011;26539;51.064;6.346;2023-02-02T16:14:29;9.90;;;4.87;;
5217;SDS011;26539;51.064;6.346;2023-02-02T16:17:32;10.27;;;4.70;;
5217;SDS011;26539;51.064;6.346;2023-02-02T16:20:42;6.67;;;3.93;;
5217;SDS011;26539;51.064;6.346;2023-02-02T16:27:13;5.73;;;4.23;;
5217;SDS011;26539;51.064;6.346;2023-02-02T16:30:37;10.43;;;4.93;;
5217;SDS011;26539;51.064;6.346;2023-02-02T16:36:40;15.20;;;5.73;;
5217;SDS011;26539;51.064;6.346;2023-02-02T16:39:21;9.33;;;5.93;;
5217;SDS011;26539;51.064;6.346;2023-02-02T17:01:46;12.00;;;8.77;;
5217;SDS011;26539;51.064;6.346;2023-02-02T17:04:28;14.37;;;8.40;;
5217;SDS011;26539;51.064;6.346;2023-02-02T17:16:00;14.00;;;9.60;;
5217;SDS011;26539;51.064;6.346;2023-02-02T17:18:27;12.27;;;8.67;;
5217;SDS011;26539;51.064;6.346;2023-02-02T17:20:53;16.57;;;10.57;;
5217;SDS011;26539;51.064;6.346;2023-02-02T17:23:30;17.83;;;10.33;;
5217;SDS011;26539;51.064;6.346;2023-02-02T17:26:01;14.93;;;9.83;;
5217;SDS011;26539;51.064;6.346;2023-02-02T17:28:27;20.97;;;10.83;;
5217;SDS011;26539;51.064;6.346;2023-02-02T17:30:57;19.67;;;10.77;;
5217;SDS011;26539;51.064;6.346;2023-02-02T17:33:34;24.40;;;11.13;;
5217;SDS011;26539;51.064;6.346;2023-02-02T17:36:04;20.10;;;10.10;;
5217;SDS011;26539;51.064;6.346;2023-02-02T17:38:37;21.37;;;12.70;;
5217;SDS011;26539;51.064;6.346;2023-02-02T17:41:03;18.47;;;11.27;;
5217;SDS011;26539;51.064;6.346;2023-02-02T17:43:29;17.03;;;11.30;;
5217;SDS011;26539;51.064;6.346;2023-02-02T17:45:57;19.87;;;12.37;;
5217;SDS011;26539;51.064;6.346;2023-02-02T17:48:23;20.17;;;12.00;;
5217;SDS011;26539;51.064;6.346;2023-02-02T17:50:49;24.30;;;11.20;;
5217;SDS011;26539;51.064;6.346;2023-02-02T17:53:18;18.40;;;10.83;;
5217;SDS011;26539;51.064;6.346;2023-02-02T17:55:46;16.13;;;10.27;;
5217;SDS011;26539;51.064;6.346;2023-02-02T17:58:15;24.63;;;10.50;;
5217;SDS011;26539;51.064;6.346;2023-02-02T18:00:51;15.77;;;10.40;;
5217;SDS011;26539;51.064;6.346;2023-02-02T18:03:34;15.23;;;10.20;;
5217;SDS011;26539;51.064;6.346;2023-02-02T18:06:06;19.33;;;10.40;;
5217;SDS011;26539;51.064;6.346;2023-02-02T18:08:40;18.37;;;11.80;;
5217;SDS011;26539;51.064;6.346;2023-02-02T18:13:39;23.13;;;12.03;;
5217;SDS011;26539;51.064;6.346;2023-02-02T18:16:14;19.10;;;10.37;;
5217;SDS011;26539;51.064;6.346;2023-02-02T18:18:44;15.43;;;10.10;;
5217;SDS011;26539;51.064;6.346;2023-02-02T18:23:45;19.57;;;12.03;;
5217;SDS011;26539;51.064;6.346;2023-02-02T18:26:18;22.07;;;11.97;;
5217;SDS011;26539;51.064;6.346;2023-02-02T18:28:48;15.50;;;10.77;;
5217;SDS011;26539;51.064;6.346;2023-02-02T18:31:20;16.03;;;10.33;;
5217;SDS011;26539;51.064;6.346;2023-02-02T18:33:49;13.83;;;11.00;;
5217;SDS011;26539;51.064;6.346;2023-02-02T18:36:20;12.87;;;11.07;;
5217;SDS011;26539;51.064;6.346;2023-02-02T18:38:47;16.43;;;9.57;;
5217;SDS011;26539;51.064;6.346;2023-02-02T18:41:22;17.00;;;11.03;;
5217;SDS011;26539;51.064;6.346;2023-02-02T18:44:14;17.40;;;10.80;;
5217;SDS011;26539;51.064;6.346;2023-02-02T18:46:42;19.43;;;10.03;;
5217;SDS011;26539;51.064;6.346;2023-02-02T18:49:10;22.07;;;10.97;;
5217;SDS011;26539;51.064;6.346;2023-02-02T18:51:38;13.50;;;9.67;;
5217;SDS011;26539;51.064;6.346;2023-02-02T18:54:18;14.20;;;10.30;;
5217;SDS011;26539;51.064;6.346;2023-02-02T18:56:50;13.80;;;10.60;;
5217;SDS011;26539;51.064;6.346;2023-02-02T18:59:30;17.30;;;10.80;;
5217;SDS011;26539;51.064;6.346;2023-02-02T19:02:00;15.30;;;9.70;;
5217;SDS011;26539;51.064;6.346;2023-02-02T19:04:32;11.73;;;9.23;;
5217;SDS011;26539;51.064;6.346;2023-02-02T19:07:05;18.40;;;11.43;;
5217;SDS011;26539;51.064;6.346;2023-02-02T19:10:24;12.20;;;10.90;;
5217;SDS011;26539;51.064;6.346;2023-02-02T19:13:04;15.80;;;10.17;;
5217;SDS011;26539;51.064;6.346;2023-02-02T19:15:45;15.67;;;10.03;;
5217;SDS011;26539;51.064;6.346;2023-02-02T19:18:38;16.10;;;11.20;;
5217;SDS011;26539;51.064;6.346;2023-02-02T19:21:13;14.97;;;11.33;;
5217;SDS011;26539;51.064;6.346;2023-02-02T19:23:44;17.37;;;11.13;;
5217;SDS011;26539;51.064;6.346;2023-02-02T19:29:02;13.87;;;9.40;;
5217;SDS011;26539;51.064;6.346;2023-02-02T19:31:37;13.77;;;9.77;;
5217;SDS011;26539;51.064;6.346;2023-02-02T19:34:09;14.77;;;9.70;;
5217;SDS011;26539;51.064;6.346;2023-02-02T19:37:00;9.30;;;7.37;;
5217;SDS011;26539;51.064;6.346;2023-02-02T19:39:55;11.67;;;8.40;;
5217;SDS011;26539;51.064;6.346;2023-02-02T19:49:40;16.07;;;8.10;;
5217;SDS011;26539;51.064;6.346;2023-02-02T19:52:14;10.60;;;6.57;;
5217;SDS011;26539;51.064;6.346;2023-02-02T19:54:48;14.60;;;7.30;;
5217;SDS011;26539;51.064;6.346;2023-02-02T19:57:33;10.50;;;7.17;;
5217;SDS011;26539;51.064;6.346;2023-02-02T20:00:25;13.47;;;8.37;;
5217;SDS011;26539;51.064;6.346;2023-02-02T20:09:32;16.90;;;8.37;;
5217;SDS011;26539;51.064;6.346;2023-02-02T20:12:21;13.30;;;8.53;;
5217;SDS011;26539;51.064;6.346;2023-02-02T20:15:00;13.70;;;7.80;;
5217;SDS011;26539;51.064;6.346;2023-02-02T20:18:05;14.53;;;7.53;;
5217;SDS011;26539;51.064;6.346;2023-02-02T20:21:09;12.40;;;7.93;;
5217;SDS011;26539;51.064;6.346;2023-02-02T20:24:00;15.90;;;8.40;;